Time;durP1;ratioP1;P1;durP2;ratioP2;P2;SDS_P1;SDS_P2;PMS_P1;PMS_P2;Temp;Humidity;BMP_temperature;BMP_pressure;BME280_temperature;BME280_humidity;BME280_pressure;Samples;Min_cycle;Max_cycle;Signal;HPM_P1;HPM_P2
2022/07/31 00:01:53;;;;;;;8.65;7.72;;;18.70;99.90;;;;;;4916121;29;20070;-70
2022/07/31 00:04:22;;;;;;;9.88;7.15;;;18.70;99.90;;;;;;4916604;29;20078;-70
2022/07/31 00:06:48;;;;;;;8.82;8.02;;;18.70;99.90;;;;;;4934261;29;20056;-70
2022/07/31 00:09:15;;;;;;;11.82;7.93;;;18.80;99.90;;;;;;4921554;29;20047;-70
2022/07/31 00:11:42;;;;;;;7.80;7.10;;;18.80;99.90;;;;;;4928579;29;20058;-70
2022/07/31 00:14:08;;;;;;;8.15;7.32;;;18.80;99.90;;;;;;4952456;29;20482;-70
2022/07/31 00:16:34;;;;;;;9.63;6.63;;;18.80;99.90;;;;;;4947547;29;20042;-70
2022/07/31 00:19:00;;;;;;;6.72;6.03;;;18.80;99.90;;;;;;4945809;29;20114;-70
2022/07/31 00:21:26;;;;;;;8.60;7.00;;;18.80;99.90;;;;;;4919667;29;20520;-71
2022/07/31 00:23:52;;;;;;;8.23;6.45;;;18.80;99.90;;;;;;4906165;29;20048;-70
2022/07/31 00:26:18;;;;;;;6.57;5.97;;;18.80;99.90;;;;;;4914287;29;20048;-71
2022/07/31 00:28:44;;;;;;;14.95;6.57;;;18.80;99.90;;;;;;4916470;29;20037;-70
2022/07/31 00:31:10;;;;;;;8.43;5.93;;;18.80;99.90;;;;;;4925571;29;20075;-70
2022/07/31 00:33:35;;;;;;;6.93;6.25;;;18.80;99.90;;;;;;4925843;29;20047;-70
2022/07/31 00:36:01;;;;;;;8.02;7.32;;;18.80;99.90;;;;;;4919203;29;20036;-70
2022/07/31 00:38:27;;;;;;;13.05;7.03;;;18.80;99.90;;;;;;4916191;29;20525;-70
2022/07/31 00:40:52;;;;;;;17.10;7.30;;;18.80;99.90;;;;;;4920017;29;20051;-70
2022/07/31 00:43:18;;;;;;;8.50;6.70;;;18.80;99.90;;;;;;4915536;29;20100;-70
2022/07/31 00:45:44;;;;;;;9.07;7.82;;;18.80;99.90;;;;;;4914158;29;20734;-70
2022/07/31 00:48:10;;;;;;;9.90;7.25;;;18.70;99.90;;;;;;4918913;29;20091;-70
2022/07/31 00:50:36;;;;;;;9.68;7.00;;;18.70;99.90;;;;;;4926712;29;20059;-70
2022/07/31 00:53:02;;;;;;;7.72;6.85;;;18.70;99.90;;;;;;4949841;28;20043;-70
2022/07/31 00:55:28;;;;;;;9.43;6.90;;;18.70;99.90;;;;;;4934446;29;20051;-70
2022/07/31 00:57:54;;;;;;;6.50;5.90;;;18.70;99.90;;;;;;4933996;29;20049;-70
2022/07/31 01:00:21;;;;;;;7.28;6.10;;;18.70;99.90;;;;;;4934121;29;20035;-70
2022/07/31 01:02:48;;;;;;;7.10;5.95;;;18.70;99.90;;;;;;4935498;29;20054;-70
2022/07/31 01:05:15;;;;;;;7.60;5.90;;;18.60;99.90;;;;;;4949153;28;20441;-70
2022/07/31 01:07:47;;;;;;;7.40;5.35;;;18.60;99.90;;;;;;4933202;29;20048;-70
2022/07/31 01:10:21;;;;;;;5.90;5.40;;;18.60;99.90;;;;;;4950140;28;20131;-70
2022/07/31 01:12:53;;;;;;;5.72;5.22;;;18.50;99.90;;;;;;4923922;29;20060;-70
2022/07/31 01:15:21;;;;;;;6.75;5.35;;;18.50;99.90;;;;;;4948403;28;20066;-70
2022/07/31 01:17:49;;;;;;;9.05;5.80;;;18.50;99.90;;;;;;4934091;29;20047;-71
2022/07/31 01:20:16;;;;;;;6.10;5.18;;;18.40;99.90;;;;;;4949334;28;20071;-70
2022/07/31 01:23:50;;;;;;;6.75;4.47;;;18.40;99.90;;;;;;4922316;29;20095;-70
2022/07/31 01:26:40;;;;;;;6.78;5.78;;;18.40;99.90;;;;;;4898468;29;20087;-72
2022/07/31 01:29:27;;;;;;;10.43;6.20;;;18.30;99.90;;;;;;4922294;29;20144;-70
2022/07/31 01:32:35;;;;;;;8.57;4.55;;;18.30;99.90;;;;;;4921645;29;20046;-70
2022/07/31 01:35:06;;;;;;;5.80;5.30;;;18.20;99.90;;;;;;4920407;29;20083;-70
2022/07/31 01:37:41;;;;;;;5.68;5.20;;;18.20;99.90;;;;;;4948398;28;20086;-70
2022/07/31 01:40:14;;;;;;;6.72;6.03;;;18.20;99.90;;;;;;4932766;29;20052;-70
2022/07/31 01:42:49;;;;;;;5.57;5.03;;;18.10;99.90;;;;;;4932924;29;20095;-70
2022/07/31 01:45:18;;;;;;;6.40;5.05;;;18.00;99.90;;;;;;4932980;29;20043;-70
2022/07/31 01:47:46;;;;;;;11.18;5.20;;;18.00;99.90;;;;;;4933340;29;20481;-70
2022/07/31 01:50:13;;;;;;;6.05;5.50;;;18.00;99.90;;;;;;4916892;29;20056;-70
2022/07/31 01:52:40;;;;;;;7.07;6.43;;;17.90;99.90;;;;;;4931565;29;20127;-70
2022/07/31 01:55:09;;;;;;;9.75;8.77;;;17.80;99.90;;;;;;4932690;29;20122;-70
2022/07/31 01:57:37;;;;;;;6.45;5.88;;;17.70;99.90;;;;;;4917496;29;20048;-70
2022/07/31 02:00:07;;;;;;;6.38;5.78;;;17.70;99.90;;;;;;4923794;29;20394;-70
2022/07/31 02:02:34;;;;;;;9.60;5.97;;;17.70;99.90;;;;;;4927195;29;20047;-70
2022/07/31 02:05:03;;;;;;;6.50;5.53;;;17.70;99.90;;;;;;4926512;29;20047;-70
2022/07/31 02:07:30;;;;;;;6.72;5.88;;;17.60;99.90;;;;;;4916660;29;20046;-70
2022/07/31 02:09:57;;;;;;;8.35;6.35;;;17.70;99.90;;;;;;4917172;29;20047;-70
2022/07/31 02:12:24;;;;;;;6.05;5.50;;;17.60;99.90;;;;;;4918735;29;20047;-70
2022/07/31 02:14:50;;;;;;;7.80;5.88;;;17.60;99.90;;;;;;4919674;29;20083;-70
2022/07/31 02:17:17;;;;;;;12.48;6.78;;;17.60;99.90;;;;;;4912099;29;20051;-70
2022/07/31 02:19:44;;;;;;;6.68;5.60;;;17.60;99.90;;;;;;4934063;29;20040;-71
2022/07/31 02:22:10;;;;;;;6.43;5.70;;;17.60;99.90;;;;;;4919688;29;20446;-71
2022/07/31 02:24:36;;;;;;;6.57;5.85;;;17.50;99.90;;;;;;4911213;29;20104;-71
2022/07/31 02:27:04;;;;;;;6.10;5.28;;;17.50;99.90;;;;;;4916514;29;20124;-71
2022/07/31 02:29:31;;;;;;;7.47;5.50;;;17.60;99.90;;;;;;4920679;29;20059;-71
2022/07/31 02:31:58;;;;;;;6.10;5.53;;;17.60;99.90;;;;;;4928027;29;20036;-71
2022/07/31 02:34:26;;;;;;;5.90;5.40;;;17.60;99.90;;;;;;4909289;29;20032;-71
2022/07/31 02:36:52;;;;;;;;;;;17.60;99.90;;;;;;4927594;29;20043;-71
2022/07/31 02:39:19;;;;;;;6.28;4.95;;;17.60;99.90;;;;;;4918346;29;19926;-70
2022/07/31 02:41:46;;;;;;;7.23;6.37;;;17.50;99.90;;;;;;4926837;29;20131;-71
2022/07/31 02:44:13;;;;;;;7.57;6.97;;;17.50;99.90;;;;;;4921876;29;20047;-71
2022/07/31 02:46:42;;;;;;;8.23;7.43;;;17.50;99.90;;;;;;4930430;29;20044;-71
2022/07/31 02:49:09;;;;;;;7.18;6.57;;;17.50;99.90;;;;;;4928156;29;20052;-71
2022/07/31 02:51:34;;;;;;;7.32;6.68;;;17.50;99.90;;;;;;4935931;29;20091;-72
2022/07/31 02:54:00;;;;;;;6.97;6.38;;;17.50;99.90;;;;;;4951110;28;20151;-71
2022/07/31 02:56:42;;;;;;;7.40;5.10;;;17.50;99.90;;;;;;4935325;29;20459;-71
2022/07/31 02:59:08;;;;;;;9.45;6.47;;;17.50;99.90;;;;;;4940137;29;20067;-71
2022/07/31 03:01:35;;;;;;;6.47;5.78;;;17.50;99.90;;;;;;4932490;29;20051;-70
2022/07/31 03:04:01;;;;;;;8.40;7.10;;;17.50;99.90;;;;;;4949401;28;20043;-70
2022/07/31 03:06:27;;;;;;;10.07;9.02;;;17.40;99.90;;;;;;4931683;29;20135;-70
2022/07/31 03:08:52;;;;;;;10.38;9.38;;;17.40;99.90;;;;;;4928492;29;20476;-70
2022/07/31 03:11:18;;;;;;;9.25;8.30;;;17.30;99.90;;;;;;4933448;29;20046;-71
2022/07/31 03:13:45;;;;;;;11.98;9.88;;;17.30;99.90;;;;;;4936117;29;20043;-71
2022/07/31 03:16:13;;;;;;;10.48;9.23;;;17.30;99.90;;;;;;4936107;29;20118;-70
2022/07/31 03:18:39;;;;;;;10.00;8.77;;;17.30;99.90;;;;;;4936163;29;20040;-70
2022/07/31 03:21:08;;;;;;;10.52;9.45;;;17.20;99.90;;;;;;4935758;29;20523;-70
2022/07/31 03:23:37;;;;;;;9.43;8.63;;;17.20;99.90;;;;;;4932153;29;20044;-70
2022/07/31 03:26:04;;;;;;;10.23;9.23;;;17.20;99.90;;;;;;4935397;29;20450;-70
2022/07/31 03:28:32;;;;;;;11.32;9.90;;;17.20;99.90;;;;;;4935216;29;20611;-70
2022/07/31 03:30:57;;;;;;;11.30;10.15;;;17.20;99.90;;;;;;4936729;29;20048;-71
2022/07/31 03:33:23;;;;;;;9.63;8.70;;;17.20;99.90;;;;;;4933259;29;20042;-70
2022/07/31 03:35:49;;;;;;;10.43;9.35;;;17.10;99.90;;;;;;4933703;29;20076;-70
2022/07/31 03:38:15;;;;;;;10.73;9.65;;;17.20;99.90;;;;;;4934963;29;20074;-70
2022/07/31 03:40:41;;;;;;;15.95;10.65;;;17.20;99.90;;;;;;4935503;29;20048;-70
2022/07/31 03:43:06;;;;;;;9.00;8.02;;;17.20;99.90;;;;;;4935652;29;20039;-70
2022/07/31 03:45:37;;;;;;;11.25;10.25;;;17.20;99.90;;;;;;4947465;28;20044;-70
2022/07/31 03:48:04;;;;;;;10.07;9.07;;;17.20;99.90;;;;;;4927929;29;20052;-71
2022/07/31 03:50:30;;;;;;;10.82;9.20;;;17.20;99.90;;;;;;4934344;29;20046;-70
2022/07/31 03:52:57;;;;;;;10.80;8.60;;;17.20;99.90;;;;;;4964760;23;20527;-70
2022/07/31 03:55:24;;;;;;;10.85;9.95;;;17.20;99.90;;;;;;4957086;28;20047;-70
2022/07/31 03:57:51;;;;;;;13.27;10.38;;;17.10;99.90;;;;;;4957714;28;20050;-70
2022/07/31 04:00:19;;;;;;;13.05;9.40;;;17.10;99.90;;;;;;4957986;28;20043;-70
2022/07/31 04:02:46;;;;;;;11.05;9.93;;;17.10;99.90;;;;;;4956691;28;20133;-70
2022/07/31 04:05:11;;;;;;;11.52;10.45;;;17.10;99.90;;;;;;4957587;28;20131;-70
2022/07/31 04:07:37;;;;;;;11.27;9.10;;;17.10;99.90;;;;;;4949482;28;20477;-70
2022/07/31 04:10:25;;;;;;;9.30;8.50;;;17.10;99.90;;;;;;4955315;28;20125;-70
2022/07/31 04:12:51;;;;;;;11.23;10.23;;;17.00;99.90;;;;;;4957707;28;20243;-70
2022/07/31 04:15:17;;;;;;;15.07;11.38;;;17.00;99.90;;;;;;4938373;28;20067;-70
2022/07/31 04:17:42;;;;;;;10.40;9.50;;;17.00;99.90;;;;;;4944606;28;20047;-70
2022/07/31 04:20:09;;;;;;;13.45;11.18;;;17.00;99.90;;;;;;4940543;28;20061;-70
2022/07/31 04:22:36;;;;;;;10.80;9.80;;;17.00;99.90;;;;;;4956161;28;20374;-70
2022/07/31 04:25:03;;;;;;;10.43;9.35;;;17.00;99.90;;;;;;4957239;28;20038;-70
2022/07/31 04:27:28;;;;;;;13.10;11.82;;;17.10;99.90;;;;;;4953556;28;20492;-70
2022/07/31 04:29:55;;;;;;;11.75;10.05;;;17.10;99.90;;;;;;4955675;28;20146;-70
2022/07/31 04:32:21;;;;;;;12.52;10.50;;;17.10;99.90;;;;;;4966892;28;20046;-70
2022/07/31 04:34:46;;;;;;;15.85;9.57;;;17.10;99.90;;;;;;4956384;28;20051;-71
2022/07/31 04:37:12;;;;;;;10.23;9.23;;;17.10;99.90;;;;;;4947233;28;20336;-70
2022/07/31 04:39:38;;;;;;;11.80;10.70;;;17.10;99.90;;;;;;4967663;28;20035;-70
2022/07/31 04:42:04;;;;;;;12.95;10.00;;;17.10;99.90;;;;;;4956103;28;20067;-70
2022/07/31 04:44:30;;;;;;;10.93;10.02;;;17.20;99.90;;;;;;4940961;28;20049;-70
2022/07/31 04:47:00;;;;;;;13.00;11.65;;;17.20;99.90;;;;;;4955068;28;20421;-70
2022/07/31 04:49:26;;;;;;;10.93;8.80;;;17.20;99.90;;;;;;4954654;28;20047;-70
2022/07/31 04:51:52;;;;;;;10.80;9.77;;;17.20;99.90;;;;;;4952101;28;20105;-71
2022/07/31 04:54:17;;;;;;;12.35;10.05;;;17.30;99.90;;;;;;4953960;28;20050;-70
2022/07/31 04:56:43;;;;;;;13.65;11.68;;;17.30;99.90;;;;;;4950167;28;20051;-71
2022/07/31 04:59:12;;;;;;;12.73;9.98;;;17.30;99.90;;;;;;4940782;28;20069;-71
2022/07/31 05:01:41;;;;;;;12.20;10.35;;;17.40;99.90;;;;;;4953598;28;20104;-72
2022/07/31 05:04:13;;;;;;;11.15;10.05;;;17.30;99.90;;;;;;4938070;28;20094;-70
2022/07/31 05:06:41;;;;;;;10.82;9.73;;;17.30;99.90;;;;;;4955005;28;20042;-70
2022/07/31 05:09:09;;;;;;;11.32;10.23;;;17.40;99.90;;;;;;4955861;28;20050;-71
2022/07/31 05:11:36;;;;;;;18.80;12.00;;;17.40;99.90;;;;;;4956331;28;20038;-70
2022/07/31 05:14:04;;;;;;;18.77;11.00;;;17.40;99.90;;;;;;4954608;28;20049;-71
2022/07/31 05:16:31;;;;;;;11.05;9.23;;;17.40;99.90;;;;;;4937064;29;20039;-70
2022/07/31 05:18:57;;;;;;;10.77;9.70;;;17.50;99.90;;;;;;4949434;28;20496;-70
2022/07/31 05:21:25;;;;;;;13.43;9.85;;;17.50;99.90;;;;;;4950532;28;20049;-70
2022/07/31 05:23:53;;;;;;;11.18;9.73;;;17.50;99.90;;;;;;4961266;28;20500;-71
2022/07/31 05:26:19;;;;;;;11.13;10.07;;;17.60;99.90;;;;;;4949816;28;20057;-72
2022/07/31 05:28:46;;;;;;;10.95;9.10;;;17.60;99.90;;;;;;4939171;28;20050;-72
2022/07/31 05:31:12;;;;;;;13.27;9.77;;;17.70;99.90;;;;;;4955900;28;20039;-72
2022/07/31 05:33:38;;;;;;;8.68;7.88;;;17.80;99.90;;;;;;4954254;28;20066;-71
2022/07/31 05:36:05;;;;;;;10.55;7.75;;;17.90;99.90;;;;;;4971614;28;20034;-71
2022/07/31 05:38:31;;;;;;;11.77;8.43;;;18.00;99.90;;;;;;4971510;28;20097;-71
2022/07/31 05:40:56;;;;;;;9.18;8.05;;;18.10;99.90;;;;;;4962618;28;20042;-71
2022/07/31 05:43:22;;;;;;;13.38;8.13;;;18.10;99.90;;;;;;4968751;28;20047;-71
2022/07/31 05:45:48;;;;;;;8.75;7.38;;;18.20;99.90;;;;;;4955746;28;20374;-72
2022/07/31 05:48:17;;;;;;;14.75;7.70;;;18.30;99.90;;;;;;4970189;28;20181;-71
2022/07/31 05:50:47;;;;;;;10.32;8.07;;;18.30;99.90;;;;;;4972898;28;20066;-71
2022/07/31 05:53:16;;;;;;;11.38;7.95;;;18.40;99.90;;;;;;4949705;28;20095;-71
2022/07/31 05:55:45;;;;;;;7.65;7.05;;;18.40;99.90;;;;;;4930320;29;20043;-72
2022/07/31 05:58:14;;;;;;;8.05;6.93;;;18.50;99.90;;;;;;4920774;29;20494;-71
2022/07/31 06:00:40;;;;;;;8.43;7.57;;;18.50;99.90;;;;;;4936292;29;20035;-72
2022/07/31 06:03:06;;;;;;;13.40;7.68;;;18.60;99.90;;;;;;4947499;29;20142;-72
2022/07/31 06:05:32;;;;;;;15.35;6.75;;;18.60;99.90;;;;;;4931543;29;20549;-71
2022/07/31 06:07:58;;;;;;;8.48;7.68;;;18.70;99.90;;;;;;4933231;29;20043;-71
2022/07/31 06:10:25;;;;;;;10.85;6.78;;;18.70;99.90;;;;;;4929820;29;20044;-72
2022/07/31 06:12:51;;;;;;;8.57;7.28;;;18.80;99.90;;;;;;4933102;29;20048;-71
2022/07/31 06:15:17;;;;;;;9.80;6.90;;;18.80;99.90;;;;;;4930446;29;20103;-71
2022/07/31 06:17:43;;;;;;;9.05;7.95;;;18.90;99.90;;;;;;4945905;28;20036;-71
2022/07/31 06:20:10;;;;;;;10.55;7.35;;;18.90;99.90;;;;;;4959278;28;20086;-73
2022/07/31 06:22:38;;;;;;;7.95;7.20;;;19.00;99.90;;;;;;4945798;29;20055;-72
2022/07/31 06:25:05;;;;;;;10.32;7.10;;;19.10;99.90;;;;;;4917717;29;20087;-72
2022/07/31 06:27:31;;;;;;;16.23;7.95;;;19.10;99.90;;;;;;4948896;23;20134;-71
2022/07/31 06:29:56;;;;;;;7.75;6.30;;;19.20;99.90;;;;;;4942568;28;20130;-71
2022/07/31 06:32:23;;;;;;;9.68;7.00;;;19.30;99.90;;;;;;4928700;29;20043;-71
2022/07/31 06:34:49;;;;;;;8.02;7.18;;;19.30;99.90;;;;;;4929773;29;20087;-71
2022/07/31 06:37:14;;;;;;;8.00;6.50;;;19.30;99.90;;;;;;4921313;29;20495;-72
2022/07/31 06:39:40;;;;;;;9.77;6.63;;;19.40;99.90;;;;;;4907825;29;20056;-71
2022/07/31 06:42:06;;;;;;;8.15;6.72;;;19.40;99.90;;;;;;4913372;29;20044;-71
2022/07/31 06:44:33;;;;;;;9.73;7.60;;;19.40;99.90;;;;;;4906357;29;20083;-71
2022/07/31 06:46:59;;;;;;;7.50;6.32;;;19.40;99.90;;;;;;4908162;29;20104;-71
2022/07/31 06:49:24;;;;;;;9.27;8.32;;;19.40;99.90;;;;;;4910075;29;20056;-70
2022/07/31 06:51:51;;;;;;;7.20;6.50;;;19.50;99.90;;;;;;4907699;29;20512;-71
2022/07/31 06:54:18;;;;;;;10.40;7.43;;;19.50;99.90;;;;;;4915282;29;20048;-71
2022/07/31 06:56:43;;;;;;;9.63;7.45;;;19.50;99.90;;;;;;4909619;29;20080;-71
2022/07/31 06:59:09;;;;;;;7.63;6.82;;;19.50;99.90;;;;;;4910307;29;20472;-70
2022/07/31 07:01:35;;;;;;;7.63;6.85;;;19.60;99.90;;;;;;4909287;29;20040;-71
2022/07/31 07:04:02;;;;;;;7.65;6.95;;;19.60;99.90;;;;;;4909231;29;20050;-71
2022/07/31 07:06:28;;;;;;;12.02;7.85;;;19.60;99.90;;;;;;4909942;29;20126;-71
2022/07/31 07:08:54;;;;;;;9.55;8.10;;;19.70;99.90;;;;;;4909557;29;20593;-71
2022/07/31 07:11:20;;;;;;;9.02;7.47;;;19.60;99.90;;;;;;4908838;29;20154;-71
2022/07/31 07:13:46;;;;;;;13.68;6.35;;;19.70;99.90;;;;;;4914350;29;20039;-71
2022/07/31 07:16:12;;;;;;;8.40;7.22;;;19.80;99.90;;;;;;4914279;29;20370;-71
2022/07/31 07:18:39;;;;;;;10.25;6.78;;;19.80;99.90;;;;;;4908109;29;20135;-71
2022/07/31 07:21:04;;;;;;;8.93;6.78;;;19.90;99.90;;;;;;4918323;29;20052;-71
2022/07/31 07:23:31;;;;;;;11.32;7.45;;;19.90;99.90;;;;;;4905938;29;20558;-71
2022/07/31 07:25:57;;;;;;;8.77;7.97;;;19.90;99.90;;;;;;4910002;29;20900;-71
2022/07/31 07:28:22;;;;;;;10.93;7.85;;;19.90;99.90;;;;;;4920796;29;20059;-72
2022/07/31 07:30:48;;;;;;;8.80;7.93;;;20.00;99.90;;;;;;4947496;29;20525;-71
2022/07/31 07:33:14;;;;;;;10.43;7.97;;;20.00;99.90;;;;;;4916165;29;20058;-71
2022/07/31 07:35:39;;;;;;;8.85;7.95;;;20.00;99.90;;;;;;4925854;29;20056;-71
2022/07/31 07:38:05;;;;;;;13.05;9.55;;;20.10;99.90;;;;;;4931371;29;20122;-71
2022/07/31 07:40:31;;;;;;;16.02;7.75;;;20.10;99.90;;;;;;4931005;29;20070;-71
2022/07/31 07:42:57;;;;;;;15.75;9.27;;;20.10;99.90;;;;;;4930827;29;20047;-70
2022/07/31 07:45:23;;;;;;;10.45;9.10;;;20.10;99.90;;;;;;4921601;29;20047;-72
2022/07/31 07:47:49;;;;;;;8.38;7.45;;;20.10;99.90;;;;;;4932440;29;20043;-72
2022/07/31 07:50:15;;;;;;;9.80;8.80;;;20.10;99.90;;;;;;4930954;29;20043;-72
2022/07/31 07:52:40;;;;;;;9.77;8.77;;;20.10;99.90;;;;;;4917219;29;20051;-72
2022/07/31 07:55:07;;;;;;;12.27;8.95;;;20.20;99.90;;;;;;4937314;29;20041;-71
2022/07/31 07:57:35;;;;;;;17.92;9.75;;;20.20;99.90;;;;;;4929797;29;20095;-71
2022/07/31 08:00:09;;;;;;;10.98;9.20;;;20.30;99.90;;;;;;4933754;29;20126;-72
2022/07/31 08:02:35;;;;;;;33.72;9.70;;;20.30;99.90;;;;;;4930194;29;20176;-72
2022/07/31 08:05:01;;;;;;;10.73;9.65;;;20.30;99.90;;;;;;4933605;29;20032;-72
2022/07/31 08:07:31;;;;;;;20.02;10.30;;;20.40;99.90;;;;;;4931319;29;20046;-72
2022/07/31 08:09:58;;;;;;;12.68;10.05;;;20.40;99.90;;;;;;4921541;29;20883;-72
2022/07/31 08:12:25;;;;;;;14.25;10.27;;;20.50;99.90;;;;;;4927417;29;20568;-73
2022/07/31 08:14:51;;;;;;;12.98;11.02;;;20.50;99.90;;;;;;4931139;29;20046;-72
2022/07/31 08:17:18;;;;;;;13.27;11.80;;;20.60;99.90;;;;;;4914221;29;20051;-71
2022/07/31 08:19:45;;;;;;;11.30;10.15;;;20.70;99.90;;;;;;4930974;29;20047;-71
2022/07/31 08:22:11;;;;;;;12.95;11.63;;;20.80;99.90;;;;;;4909699;29;20482;-72
2022/07/31 08:24:36;;;;;;;13.57;11.07;;;20.90;99.90;;;;;;4932705;29;20070;-72
2022/07/31 08:29:47;;;;;;;12.23;10.68;;;21.00;99.90;;;;;;4930043;29;20052;-73
2022/07/31 08:32:13;;;;;;;11.20;10.07;;;21.10;99.90;;;;;;4928278;29;20140;-73
2022/07/31 08:34:38;;;;;;;14.23;10.80;;;21.10;99.90;;;;;;4932869;29;20046;-72
2022/07/31 08:37:05;;;;;;;13.50;12.05;;;21.20;99.90;;;;;;4931364;29;20043;-71
2022/07/31 08:39:35;;;;;;;12.95;11.18;;;21.20;99.90;;;;;;4930548;29;20047;-71
2022/07/31 08:42:06;;;;;;;16.95;12.50;;;21.30;99.90;;;;;;4931281;29;20051;-71
2022/07/31 08:44:34;;;;;;;14.48;12.73;;;21.30;99.90;;;;;;4930988;29;20079;-72
2022/07/31 08:47:01;;;;;;;13.93;11.85;;;21.40;99.90;;;;;;4915727;29;20059;-71
2022/07/31 08:49:29;;;;;;;16.45;12.98;;;21.50;99.90;;;;;;4937674;29;20044;-73
2022/07/31 08:51:58;;;;;;;12.52;11.25;;;21.40;99.90;;;;;;4933385;29;20082;-72
2022/07/31 08:54:25;;;;;;;13.63;11.90;;;21.40;99.90;;;;;;4934579;29;20051;-72
2022/07/31 08:56:52;;;;;;;;;;;21.40;99.90;;;;;;4930190;29;20115;-73
2022/07/31 08:59:18;;;;;;;18.73;12.10;;;21.40;99.90;;;;;;4928197;29;20013;-73
2022/07/31 09:01:44;;;;;;;12.90;11.60;;;21.40;99.90;;;;;;4928502;29;20106;-72
2022/07/31 09:04:11;;;;;;;13.00;11.75;;;21.50;99.90;;;;;;4929210;29;20043;-73
2022/07/31 09:06:37;;;;;;;11.82;10.60;;;21.50;99.90;;;;;;4929797;29;20036;-72
2022/07/31 09:09:04;;;;;;;13.82;12.63;;;21.50;99.90;;;;;;4927965;29;20813;-72
2022/07/31 09:11:30;;;;;;;14.40;12.52;;;21.50;99.90;;;;;;4926044;29;20063;-72
2022/07/31 09:14:02;;;;;;;20.00;14.00;;;21.50;99.90;;;;;;4930863;29;20047;-72
2022/07/31 09:16:28;;;;;;;16.10;13.95;;;21.50;99.90;;;;;;4930506;29;20665;-73
2022/07/31 09:18:56;;;;;;;24.00;13.10;;;21.50;99.90;;;;;;4931744;29;20063;-71
2022/07/31 09:21:22;;;;;;;14.93;13.07;;;21.50;99.90;;;;;;4931204;29;20070;-72
2022/07/31 09:23:48;;;;;;;18.30;14.15;;;21.40;99.90;;;;;;4929144;29;20093;-71
2022/07/31 09:26:16;;;;;;;16.30;14.57;;;21.30;99.90;;;;;;4927518;29;20062;-73
2022/07/31 09:28:44;;;;;;;16.73;15.02;;;21.30;99.90;;;;;;4909800;29;20106;-72
2022/07/31 09:31:12;;;;;;;16.70;14.75;;;21.20;99.90;;;;;;4932341;29;20036;-73
2022/07/31 09:33:42;;;;;;;15.52;13.77;;;21.10;99.90;;;;;;4910716;29;20059;-74
2022/07/31 09:36:08;;;;;;;16.15;14.35;;;21.10;99.90;;;;;;4902736;29;20059;-75
2022/07/31 09:38:36;;;;;;;18.23;15.13;;;21.10;99.90;;;;;;4921992;29;20248;-75
2022/07/31 09:41:14;;;;;;;19.58;14.05;;;21.00;99.90;;;;;;4926485;29;20055;-77
2022/07/31 09:43:40;;;;;;;;;;;20.90;99.90;;;;;;4912604;29;20123;-76
2022/07/31 09:46:07;;;;;;;19.42;16.70;;;20.90;99.90;;;;;;4907739;29;20455;-74
2022/07/31 09:48:34;;;;;;;20.25;15.05;;;20.80;99.90;;;;;;4910051;29;20051;-74
2022/07/31 09:51:06;;;;;;;17.52;15.88;;;20.80;99.90;;;;;;4910413;29;20056;-72
2022/07/31 09:53:52;;;;;;;18.33;16.52;;;20.80;99.90;;;;;;4906522;29;20053;-73
2022/07/31 09:56:29;;;;;;;17.75;16.17;;;20.80;99.90;;;;;;4925663;29;20054;-75
2022/07/31 09:58:55;;;;;;;26.33;17.05;;;20.80;99.90;;;;;;4912187;29;20043;-74
2022/07/31 10:01:21;;;;;;;21.75;17.58;;;20.80;99.90;;;;;;4930280;29;20122;-74
2022/07/31 10:03:49;;;;;;;16.88;15.27;;;20.80;99.90;;;;;;4916448;29;20197;-73
2022/07/31 10:06:16;;;;;;;19.45;16.08;;;20.80;99.90;;;;;;4931286;29;20052;-69
2022/07/31 10:08:43;;;;;;;20.30;16.63;;;20.80;99.90;;;;;;4930422;29;20056;-68
2022/07/31 10:11:09;;;;;;;;;;;20.80;99.90;;;;;;4934834;29;20104;-69
2022/07/31 10:13:43;;;;;;;23.85;16.50;;;20.90;99.90;;;;;;4930306;29;20013;-69
2022/07/31 10:16:09;;;;;;;23.17;18.25;;;21.00;99.90;;;;;;4934145;29;20056;-69
2022/07/31 10:18:39;;;;;;;20.67;18.58;;;20.90;99.90;;;;;;4927599;29;20126;-69
2022/07/31 10:21:06;;;;;;;20.65;17.30;;;20.90;99.90;;;;;;4930594;29;20169;-69
2022/07/31 10:23:39;;;;;;;18.02;16.27;;;20.90;99.90;;;;;;4927963;29;20047;-69
2022/07/31 10:26:04;;;;;;;18.50;16.38;;;20.90;99.90;;;;;;4934117;29;20469;-69
2022/07/31 10:28:31;;;;;;;23.83;17.73;;;20.90;99.90;;;;;;4911181;29;20055;-69
2022/07/31 10:30:57;;;;;;;20.10;17.85;;;20.90;99.90;;;;;;4928316;29;20469;-69
2022/07/31 10:33:25;;;;;;;20.58;18.50;;;20.90;99.90;;;;;;4920530;29;20082;-69
2022/07/31 10:36:05;;;;;;;19.75;17.73;;;20.80;99.90;;;;;;4933731;29;20062;-69
2022/07/31 10:38:46;;;;;;;21.73;18.63;;;20.80;99.90;;;;;;4928664;29;20373;-69
2022/07/31 10:41:31;;;;;;;22.40;20.08;;;20.80;99.90;;;;;;4928858;29;20071;-73
2022/07/31 10:44:02;;;;;;;23.20;19.70;;;20.90;99.90;;;;;;4929882;29;20508;-72
2022/07/31 10:46:30;;;;;;;19.15;17.30;;;20.90;99.90;;;;;;4930966;29;20055;-72
2022/07/31 10:48:57;;;;;;;22.05;17.70;;;20.90;99.90;;;;;;4934564;29;20468;-72
2022/07/31 10:51:25;;;;;;;21.25;18.17;;;20.90;99.90;;;;;;4928456;29;20052;-72
2022/07/31 10:54:04;;;;;;;23.33;18.50;;;20.90;99.90;;;;;;4932745;29;20063;-72
2022/07/31 10:56:44;;;;;;;21.10;18.90;;;20.90;99.90;;;;;;4928090;29;20075;-71
2022/07/31 10:59:10;;;;;;;20.42;18.38;;;20.90;99.90;;;;;;4929180;29;20070;-72
2022/07/31 11:01:49;;;;;;;21.08;18.52;;;20.90;99.90;;;;;;4912730;29;20036;-72
2022/07/31 11:04:31;;;;;;;19.90;17.77;;;20.90;99.90;;;;;;4924280;29;20074;-72
2022/07/31 11:06:57;;;;;;;25.80;20.38;;;21.00;99.90;;;;;;4912411;29;20068;-72
2022/07/31 11:09:25;;;;;;;19.67;17.60;;;21.00;99.90;;;;;;4930084;29;20055;-73
2022/07/31 11:11:51;;;;;;;26.50;18.67;;;21.00;99.90;;;;;;4930776;29;20055;-72
2022/07/31 11:14:17;;;;;;;23.08;19.55;;;21.00;99.90;;;;;;4912833;29;20047;-72
2022/07/31 11:16:50;;;;;;;22.02;19.13;;;21.00;99.90;;;;;;4932583;29;20044;-72
2022/07/31 11:19:16;;;;;;;23.33;18.73;;;21.00;99.90;;;;;;4932907;29;20540;-72
2022/07/31 11:21:42;;;;;;;25.17;21.98;;;21.10;99.90;;;;;;4923507;29;20402;-72
2022/07/31 11:24:19;;;;;;;21.27;18.50;;;21.00;99.90;;;;;;4922484;29;20051;-72
2022/07/31 11:26:52;;;;;;;;;;;21.10;99.90;;;;;;4935119;29;20161;-71
2022/07/31 11:29:29;;;;;;;22.02;19.45;;;21.10;99.90;;;;;;4927310;29;19926;-71
2022/07/31 11:31:59;;;;;;;21.33;19.13;;;21.10;99.90;;;;;;4928621;29;20436;-71
2022/07/31 11:34:24;;;;;;;20.15;18.05;;;21.00;99.90;;;;;;4915567;29;20047;-72
2022/07/31 11:36:50;;;;;;;24.00;20.80;;;21.00;99.90;;;;;;4935417;29;20701;-72
2022/07/31 11:39:16;;;;;;;25.15;19.15;;;20.90;99.90;;;;;;4938452;29;20130;-72
2022/07/31 11:41:42;;;;;;;24.30;21.85;;;20.90;99.90;;;;;;4917694;29;20070;-71
2022/07/31 11:44:07;;;;;;;26.27;23.08;;;20.90;99.90;;;;;;4937947;29;20571;-71
2022/07/31 11:46:36;;;;;;;24.30;21.75;;;20.80;99.90;;;;;;4933077;29;20036;-70
2022/07/31 11:49:03;;;;;;;24.95;22.13;;;20.80;99.90;;;;;;4925838;29;20055;-70
2022/07/31 11:51:29;;;;;;;26.13;22.83;;;20.70;99.90;;;;;;4931848;29;20504;-70
2022/07/31 11:53:56;;;;;;;25.52;22.63;;;20.70;99.90;;;;;;4915791;29;20516;-70
2022/07/31 11:56:23;;;;;;;24.83;22.35;;;20.80;99.90;;;;;;4937573;29;20516;-70
2022/07/31 11:58:57;;;;;;;29.77;26.37;;;20.80;99.90;;;;;;4915747;29;20520;-70
2022/07/31 12:01:26;;;;;;;30.95;25.17;;;20.80;99.90;;;;;;4932229;29;20567;-70
2022/07/31 12:03:52;;;;;;;30.52;22.83;;;20.80;99.90;;;;;;4938015;29;20078;-70
2022/07/31 12:06:19;;;;;;;29.77;26.67;;;20.80;99.90;;;;;;4930864;29;20051;-70
2022/07/31 12:08:49;;;;;;;30.77;27.52;;;20.70;99.90;;;;;;4932364;29;20474;-70
2022/07/31 12:11:20;;;;;;;30.48;27.05;;;20.70;99.90;;;;;;4915553;29;20112;-70
2022/07/31 12:13:46;;;;;;;33.80;25.70;;;20.60;99.90;;;;;;4932458;29;20044;-70
2022/07/31 12:16:12;;;;;;;35.45;28.55;;;20.60;99.90;;;;;;4913501;29;20077;-70
2022/07/31 12:18:49;;;;;;;35.88;28.23;;;20.50;99.90;;;;;;4930519;29;20044;-71
2022/07/31 12:21:16;;;;;;;30.25;25.30;;;20.50;99.90;;;;;;4931947;29;20130;-70
2022/07/31 12:23:47;;;;;;;35.90;29.45;;;20.30;99.90;;;;;;4930878;29;20054;-71
2022/07/31 12:26:32;;;;;;;28.70;25.50;;;20.20;99.90;;;;;;4931732;29;20086;-70
2022/07/31 12:29:09;;;;;;;33.10;28.90;;;20.10;99.90;;;;;;4931526;29;20094;-71
2022/07/31 12:31:52;;;;;;;34.83;27.40;;;19.90;99.90;;;;;;4932289;29;20048;-70
2022/07/31 12:34:44;;;;;;;31.50;27.83;;;19.80;99.90;;;;;;4898567;29;20059;-71
2022/07/31 12:37:15;;;;;;;35.45;30.25;;;19.80;99.90;;;;;;4928079;29;20043;-70
2022/07/31 12:39:51;;;;;;;33.47;29.80;;;19.70;99.90;;;;;;4926480;29;20093;-70
2022/07/31 12:42:23;;;;;;;38.03;31.42;;;19.70;99.90;;;;;;4931036;29;20047;-72
2022/07/31 12:44:53;;;;;;;45.03;33.78;;;19.70;99.90;;;;;;4933539;29;20044;-70
2022/07/31 12:47:24;;;;;;;42.05;30.58;;;19.60;99.90;;;;;;4928130;29;20048;-71